| time (UTC) | temp C | wind direction | speed KPH | gust KPH | rain 1hr cm | rain 24hr cm | rain mn cm | humidity % | barometer mb |
| 20260504215738 | 7 | 261 | 29.0 | 43.5 | 0.00 | 0.00 | 0.00 | 57 | 1012.2 |
| 20260504215237 | 7 | 259 | 30.6 | 43.5 | 0.00 | 0.00 | 0.00 | 56 | 1012.3 |
| 20260504214738 | 7 | 281 | 32.2 | 43.5 | 0.00 | 0.00 | 0.00 | 56 | 1012.2 |
| 20260504214237 | 7 | 267 | 30.6 | 43.5 | 0.00 | 0.00 | 0.00 | 55 | 1012.3 |
| 20260504214009 | 7 | 271 | 27.4 | 43.5 | 0.00 | 0.00 | 0.00 | 55 | 1012.3 |
| 20260504213240 | 7 | 305 | 29.0 | 45.1 | 0.00 | 0.00 | 0.00 | 57 | 1012.5 |
| 20260504212732 | 7 | 292 | 30.6 | 45.1 | 0.00 | 0.00 | 0.00 | 57 | 1012.5 |
| 20260504212232 | 8 | 271 | 30.6 | 49.9 | 0.00 | 0.00 | 0.00 | 56 | 1012.4 |
| 20260504211731 | 7 | 294 | 32.2 | 49.9 | 0.00 | 0.00 | 0.00 | 57 | 1012.5 |
| 20260504211232 | 7 | 294 | 33.8 | 45.1 | 0.00 | 0.00 | 0.00 | 56 | 1012.5 |
| 20260504211004 | 7 | 275 | 32.2 | 43.5 | 0.00 | 0.00 | 0.00 | 55 | 1012.5 |
| 20260504210232 | 7 | 285 | 30.6 | 45.1 | 0.00 | 0.00 | 0.00 | 55 | 1012.5 |
| 20260504210003 | 7 | 277 | 30.6 | 45.1 | 0.00 | 0.00 | 0.00 | 56 | 1012.7 |
| 20260504205227 | 7 | 264 | 32.2 | 49.9 | 0.00 | 0.00 | 0.00 | 55 | 1012.7 |
| 20260504204730 | 7 | 274 | 30.6 | 49.9 | 0.00 | 0.00 | 0.00 | 54 | 1012.4 |
| 20260504204230 | 7 | 294 | 30.6 | 48.3 | 0.00 | 0.00 | 0.00 | 55 | 1012.7 |
| 20260504203730 | 7 | 306 | 35.4 | 49.9 | 0.00 | 0.00 | 0.00 | 54 | 1012.7 |
| 20260504203226 | 7 | 230 | 37.0 | 54.7 | 0.00 | 0.00 | 0.00 | 54 | 1012.6 |
| 20260504202722 | 8 | 239 | 32.2 | 54.7 | 0.00 | 0.00 | 0.00 | 53 | 1012.7 |
| 20260504202221 | 8 | 290 | 32.2 | 54.7 | 0.00 | 0.00 | 0.00 | 54 | 1012.8 |
| 20260504201722 | 7 | 269 | 37.0 | 54.7 | 0.00 | 0.00 | 0.00 | 54 | 1012.7 |
| 20260504201221 | 7 | 235 | 35.4 | 51.5 | 0.00 | 0.00 | 0.00 | 55 | 1012.5 |
| 20260504200722 | 7 | 271 | 32.2 | 48.3 | 0.00 | 0.00 | 0.00 | 55 | 1012.7 |
| 20260504200222 | 7 | 281 | 33.8 | 48.3 | 0.00 | 0.00 | 0.00 | 55 | 1012.8 |
| 20260504195718 | 7 | 289 | 35.4 | 48.3 | 0.00 | 0.00 | 0.00 | 53 | 1012.8 |
| 20260504195217 | 7 | 248 | 35.4 | 48.3 | 0.00 | 0.00 | 0.00 | 54 | 1012.8 |
| 20260504194717 | 7 | 281 | 30.6 | 46.7 | 0.00 | 0.00 | 0.00 | 53 | 1012.8 |
| 20260504194217 | 7 | 236 | 27.4 | 43.5 | 0.00 | 0.00 | 0.00 | 55 | 1012.7 |
| 20260504193717 | 7 | 269 | 32.2 | 53.1 | 0.00 | 0.00 | 0.00 | 54 | 1013.0 |
| 20260504193218 | 7 | 269 | 37.0 | 56.3 | 0.00 | 0.00 | 0.00 | 54 | 1012.7 |
| 20260504192714 | 7 | 264 | 33.8 | 56.3 | 0.00 | 0.00 | 0.00 | 56 | 1012.8 |
| 20260504192213 | 7 | 254 | 29.0 | 46.7 | 0.00 | 0.00 | 0.00 | 57 | 1012.8 |
| 20260504191713 | 7 | 280 | 29.0 | 41.8 | 0.00 | 0.00 | 0.00 | 59 | 1013.0 |
| 20260504191214 | 7 | 262 | 30.6 | 51.5 | 0.00 | 0.00 | 0.00 | 58 | 1013.0 |
| 20260504190714 | 6 | 253 | 37.0 | 51.5 | 0.00 | 0.00 | 0.00 | 61 | 1013.1 |
| 20260504190214 | 6 | 244 | 38.6 | 56.3 | 0.00 | 0.00 | 0.00 | 59 | 1012.7 |
| 20260504185709 | 6 | 252 | 37.0 | 56.3 | 0.00 | 0.00 | 0.00 | 61 | 1013.0 |
| 20260504185205 | 6 | 248 | 32.2 | 49.9 | 0.00 | 0.00 | 0.00 | 60 | 1012.8 |
| 20260504184706 | 6 | 267 | 32.2 | 45.1 | 0.00 | 0.00 | 0.00 | 61 | 1013.0 |
| 20260504184437 | 6 | 279 | 35.4 | 46.7 | 0.00 | 0.00 | 0.00 | 63 | 1013.0 |
| 20260504183705 | 6 | 244 | 38.6 | 54.7 | 0.00 | 0.00 | 0.00 | 63 | 1013.0 |
| 20260504183436 | 6 | 245 | 37.0 | 54.7 | 0.00 | 0.00 | 0.00 | 63 | 1012.8 |
| 20260504182705 | 6 | 272 | 37.0 | 54.7 | 0.00 | 0.00 | 0.00 | 62 | 1013.0 |
| 20260504182205 | 6 | 249 | 37.0 | 53.1 | 0.00 | 0.00 | 0.00 | 62 | 1013.0 |
| 20260504181659 | 6 | 263 | 37.0 | 53.1 | 0.00 | 0.00 | 0.00 | 61 | 1012.8 |
| 20260504181431 | 6 | 255 | 37.0 | 51.5 | 0.00 | 0.00 | 0.00 | 63 | 1013.0 |
| 20260504180701 | 6 | 242 | 37.0 | 51.5 | 0.00 | 0.00 | 0.00 | 62 | 1012.8 |
| 20260504180200 | 6 | 240 | 37.0 | 51.5 | 0.00 | 0.00 | 0.00 | 63 | 1013.0 |
| 20260504175659 | 6 | 252 | 38.6 | 51.5 | 0.00 | 0.00 | 0.00 | 63 | 1013.1 |
| 20260504175159 | 6 | 243 | 35.4 | 49.9 | 0.00 | 0.00 | 0.00 | 62 | 1013.0 |
| 20260504174653 | 6 | 252 | 35.4 | 48.3 | 0.00 | 0.00 | 0.00 | 64 | 1013.0 |
| 20260504174153 | 6 | 256 | 33.8 | 46.7 | 0.00 | 0.00 | 0.00 | 64 | 1013.1 |
| 20260504173653 | 6 | 269 | 33.8 | 49.9 | 0.00 | 0.00 | 0.00 | 65 | 1013.1 |
| 20260504173153 | 6 | 240 | 35.4 | 49.9 | 0.00 | 0.00 | 0.00 | 65 | 1013.0 |
| 20260504172654 | 6 | 229 | 37.0 | 49.9 | 0.00 | 0.00 | 0.00 | 66 | 1013.1 |
| 20260504172426 | 6 | 245 | 35.4 | 51.5 | 0.00 | 0.00 | 0.00 | 66 | 1012.8 |
| 20260504171647 | 6 | 275 | 32.2 | 51.5 | 0.00 | 0.00 | 0.00 | 65 | 1013.1 |
| 20260504171147 | 6 | 244 | 32.2 | 43.5 | 0.00 | 0.00 | 0.00 | 66 | 1013.1 |
| 20260504170147 | 6 | 244 | 35.4 | 53.1 | 0.00 | 0.00 | 0.00 | 66 | 1013.0 |
| 20260504160406 | 6 | 301 | 30.6 | 46.7 | 0.00 | 0.00 | 0.00 | 67 | 1012.7 |
| 20260504150625 | 6 | 303 | 22.5 | 29.0 | 0.00 | 0.00 | 0.00 | 64 | 1012.7 |
| 20260504150122 | 6 | 302 | 20.9 | 29.0 | 0.00 | 0.00 | 0.00 | 64 | 1012.8 |
| 20260504141115 | 6 | 289 | 16.1 | 27.4 | 0.00 | 0.00 | 0.00 | 62 | 1012.5 |
| 20260504140615 | 6 | 300 | 14.5 | 22.5 | 0.00 | 0.00 | 0.00 | 63 | 1012.6 |
| 20260504140347 | 6 | 291 | 16.1 | 22.5 | 0.00 | 0.00 | 0.00 | 63 | 1012.5 |
| 20260504130607 | 6 | 294 | 16.1 | 22.5 | 0.00 | 0.00 | 0.00 | 72 | 1012.0 |
| 20260504130107 | 6 | 281 | 14.5 | 20.9 | 0.00 | 0.00 | 0.00 | 72 | 1011.9 |
| 20260504110545 | 7 | 320 | 32.2 | 41.8 | 0.00 | 0.00 | 0.00 | 64 | 1009.6 |
| 20260504100535 | 11 | 234 | 19.3 | 25.7 | 0.00 | 0.00 | 0.00 | 48 | 1007.9 |
| 20260504100304 | 11 | 237 | 19.3 | 27.4 | 0.00 | 0.00 | 0.00 | 48 | 1008.0 |
| 20260504081747 | 13 | 208 | 30.6 | 37.0 | 0.00 | 0.00 | 0.00 | 41 | 1007.2 |
| 20260504081015 | 13 | 204 | 30.6 | 37.0 | 0.00 | 0.00 | 0.00 | 41 | 1007.2 |
| 20260504080511 | 13 | 208 | 30.6 | 37.0 | 0.00 | 0.00 | 0.00 | 40 | 1007.2 |
| 20260504080240 | 13 | 211 | 30.6 | 38.6 | 0.00 | 0.00 | 0.00 | 40 | 1007.3 |
| 20260504050445 | 12 | 187 | 25.7 | 33.8 | 0.00 | 0.00 | 0.00 | 48 | 1008.6 |
| 20260504050211 | 12 | 184 | 25.7 | 33.8 | 0.00 | 0.00 | 0.00 | 47 | 1008.8 |
| 20260504045440 | 12 | 188 | 24.1 | 32.2 | 0.00 | 0.00 | 0.00 | 47 | 1008.9 |
| 20260504044942 | 12 | 182 | 24.1 | 30.6 | 0.00 | 0.00 | 0.00 | 46 | 1009.1 |
| 20260504044712 | 12 | 188 | 24.1 | 30.6 | 0.00 | 0.00 | 0.00 | 47 | 1008.9 |
| 20260504043941 | 12 | 187 | 22.5 | 29.0 | 0.00 | 0.00 | 0.00 | 47 | 1009.1 |
| 20260504043440 | 12 | 182 | 22.5 | 29.0 | 0.00 | 0.00 | 0.00 | 47 | 1009.1 |
| 20260504042935 | 13 | 191 | 22.5 | 29.0 | 0.00 | 0.00 | 0.00 | 48 | 1009.2 |
| 20260504042434 | 13 | 190 | 24.1 | 27.4 | 0.00 | 0.00 | 0.00 | 48 | 1009.2 |
| 20260504042205 | 13 | 196 | 22.5 | 29.0 | 0.00 | 0.00 | 0.00 | 48 | 1009.2 |
| 20260504041704 | 13 | 189 | 22.5 | 29.0 | 0.00 | 0.00 | 0.00 | 48 | 1009.3 |
| 20260504040933 | 13 | 194 | 22.5 | 29.0 | 0.00 | 0.00 | 0.00 | 48 | 1009.4 |
| 20260504040433 | 13 | 203 | 20.9 | 27.4 | 0.00 | 0.00 | 0.00 | 48 | 1009.4 |
| 20260504035932 | 13 | 194 | 20.9 | 25.7 | 0.00 | 0.00 | 0.00 | 48 | 1009.4 |
| 20260504035433 | 13 | 192 | 19.3 | 24.1 | 0.00 | 0.00 | 0.00 | 48 | 1009.5 |
| 20260504034933 | 13 | 197 | 19.3 | 27.4 | 0.00 | 0.00 | 0.00 | 47 | 1009.5 |
| 20260504034432 | 13 | 198 | 20.9 | 27.4 | 0.00 | 0.00 | 0.00 | 46 | 1009.5 |
| 20260504033934 | 13 | 199 | 20.9 | 27.4 | 0.00 | 0.00 | 0.00 | 46 | 1009.6 |
| 20260504033426 | 13 | 205 | 22.5 | 27.4 | 0.00 | 0.00 | 0.00 | 45 | 1009.5 |
| 20260504032927 | 13 | 204 | 20.9 | 27.4 | 0.00 | 0.00 | 0.00 | 46 | 1009.5 |
| 20260504032426 | 13 | 193 | 20.9 | 27.4 | 0.00 | 0.00 | 0.00 | 47 | 1009.4 |
| 20260504031927 | 13 | 196 | 20.9 | 27.4 | 0.00 | 0.00 | 0.00 | 47 | 1009.4 |
| 20260504030926 | 14 | 206 | 22.5 | 29.0 | 0.00 | 0.00 | 0.00 | 45 | 1009.4 |
| 20260504030420 | 14 | 210 | 22.5 | 29.0 | 0.00 | 0.00 | 0.00 | 45 | 1009.3 |
| 20260504025920 | 14 | 217 | 20.9 | 25.7 | 0.00 | 0.00 | 0.00 | 46 | 1009.4 |
| 20260504025423 | 14 | 215 | 17.7 | 25.7 | 0.00 | 0.00 | 0.00 | 47 | 1009.3 |
| 20260504024920 | 14 | 209 | 17.7 | 25.7 | 0.00 | 0.00 | 0.00 | 47 | 1009.4 |
| 20260504024420 | 14 | 204 | 17.7 | 25.7 | 0.00 | 0.00 | 0.00 | 47 | 1009.4 |
| 20260504023919 | 14 | 213 | 17.7 | 25.7 | 0.00 | 0.00 | 0.00 | 46 | 1009.3 |
| 20260504022916 | 15 | 235 | 20.9 | 27.4 | 0.00 | 0.00 | 0.00 | 44 | 1009.3 |
| 20260504022416 | 15 | 202 | 19.3 | 25.7 | 0.00 | 0.00 | 0.00 | 45 | 1009.2 |
| 20260504022148 | 15 | 231 | 17.7 | 24.1 | 0.00 | 0.00 | 0.00 | 46 | 1009.3 |
| 20260504021414 | 15 | 219 | 17.7 | 24.1 | 0.00 | 0.00 | 0.00 | 46 | 1009.2 |
| 20260504020916 | 15 | 207 | 17.7 | 25.7 | 0.00 | 0.00 | 0.00 | 45 | 1009.2 |
| 20260504020408 | 15 | 229 | 19.3 | 27.4 | 0.00 | 0.00 | 0.00 | 44 | 1009.3 |
| 20260504015908 | 16 | 211 | 20.9 | 27.4 | 0.00 | 0.00 | 0.00 | 43 | 1009.3 |
| 20260504015409 | 16 | 232 | 19.3 | 25.7 | 0.00 | 0.00 | 0.00 | 43 | 1009.3 |
| 20260504014908 | 16 | 254 | 17.7 | 24.1 | 0.00 | 0.00 | 0.00 | 43 | 1009.3 |
| 20260504014408 | 16 | 230 | 17.7 | 22.5 | 0.00 | 0.00 | 0.00 | 43 | 1009.4 |
| 20260504013908 | 16 | 213 | 19.3 | 25.7 | 0.00 | 0.00 | 0.00 | 43 | 1009.4 |
| 20260504013402 | 16 | 225 | 17.7 | 25.7 | 0.00 | 0.00 | 0.00 | 42 | 1009.5 |
| 20260504012902 | 16 | 234 | 17.7 | 22.5 | 0.00 | 0.00 | 0.00 | 42 | 1009.5 |
| 20260504012405 | 16 | 246 | 17.7 | 22.5 | 0.00 | 0.00 | 0.00 | 42 | 1009.5 |
| 20260504012133 | 17 | 245 | 17.7 | 24.1 | 0.00 | 0.00 | 0.00 | 42 | 1009.6 |
| 20260504011402 | 17 | 273 | 17.7 | 24.1 | 0.00 | 0.00 | 0.00 | 41 | 1009.7 |
| 20260504010902 | 17 | 273 | 17.7 | 29.0 | 0.00 | 0.00 | 0.00 | 41 | 1009.9 |
| 20260504010357 | 17 | 253 | 17.7 | 29.0 | 0.00 | 0.00 | 0.00 | 40 | 1010.0 |
| 20260504005856 | 17 | 260 | 17.7 | 25.7 | 0.00 | 0.00 | 0.00 | 40 | 1009.9 |
| 20260504005356 | 17 | 274 | 17.7 | 27.4 | 0.00 | 0.00 | 0.00 | 40 | 1010.1 |
| 20260504004856 | 18 | 253 | 16.1 | 27.4 | 0.00 | 0.00 | 0.00 | 39 | 1010.1 |
| 20260504004356 | 17 | 241 | 14.5 | 20.9 | 0.00 | 0.00 | 0.00 | 40 | 1010.1 |
| 20260504003858 | 17 | 256 | 14.5 | 19.3 | 0.00 | 0.00 | 0.00 | 42 | 1010.3 |
| 20260504002850 | 17 | 267 | 16.1 | 24.1 | 0.00 | 0.00 | 0.00 | 41 | 1010.3 |
| 20260504002350 | 17 | 261 | 14.5 | 24.1 | 0.00 | 0.00 | 0.00 | 41 | 1010.3 |
| 20260504001850 | 17 | 265 | 12.9 | 20.9 | 0.00 | 0.00 | 0.00 | 41 | 1010.5 |
| 20260504001351 | 17 | 0 | 14.5 | 20.9 | 0.00 | 0.00 | 0.00 | 44 | 1010.5 |
| 20260504000849 | 16 | 270 | 14.5 | 19.3 | 0.00 | 0.00 | 0.00 | 43 | 1010.5 |
| 20260504000347 | 16 | 287 | 14.5 | 19.3 | 0.00 | 0.00 | 0.00 | 44 | 1010.8 |
| 20260504000118 | 16 | 300 | 16.1 | 27.4 | 0.00 | 0.00 | 0.00 | 43 | 1010.8 |
| 20260503235349 | 17 | 259 | 17.7 | 27.4 | 0.00 | 0.00 | 0.00 | 42 | 1010.8 |
| 20260503234848 | 17 | 271 | 19.3 | 35.4 | 0.00 | 0.00 | 0.00 | 41 | 1010.9 |
| 20260503234348 | 17 | 258 | 22.5 | 35.4 | 0.00 | 0.00 | 0.00 | 42 | 1010.9 |
| 20260503233847 | 18 | 220 | 24.1 | 40.2 | 0.00 | 0.00 | 0.00 | 40 | 1010.9 |
| 20260503233348 | 18 | 217 | 24.1 | 40.2 | 0.00 | 0.00 | 0.00 | 41 | 1011.0 |
| 20260503233114 | 18 | 195 | 22.5 | 35.4 | 0.00 | 0.00 | 0.00 | 41 | 1010.9 |
| 20260503232344 | 18 | 214 | 24.1 | 32.2 | 0.00 | 0.00 | 0.00 | 40 | 1011.1 |
| 20260503231844 | 18 | 225 | 24.1 | 33.8 | 0.00 | 0.00 | 0.00 | 40 | 1011.1 |
| 20260503231344 | 18 | 211 | 22.5 | 33.8 | 0.00 | 0.00 | 0.00 | 43 | 1011.1 |
| 20260503230843 | 17 | 192 | 22.5 | 33.8 | 0.00 | 0.00 | 0.00 | 41 | 1011.2 |
| 20260503230616 | 18 | 223 | 20.9 | 33.8 | 0.00 | 0.00 | 0.00 | 42 | 1011.2 |
| 20260503230116 | 17 | 184 | 20.9 | 35.4 | 0.00 | 0.00 | 0.00 | 43 | 1011.2 |
| 20260503225337 | 17 | 196 | 22.5 | 35.4 | 0.00 | 0.00 | 0.00 | 45 | 1011.4 |
| 20260503224838 | 17 | 182 | 24.1 | 38.6 | 0.00 | 0.00 | 0.00 | 44 | 1011.4 |
| 20260503224337 | 17 | 194 | 22.5 | 38.6 | 0.00 | 0.00 | 0.00 | 44 | 1011.5 |
| 20260503223838 | 17 | 190 | 22.5 | 40.2 | 0.00 | 0.00 | 0.00 | 48 | 1011.6 |
| 20260503223608 | 17 | 195 | 24.1 | 40.2 | 0.00 | 0.00 | 0.00 | 49 | 1011.7 |
| 20260503222838 | 17 | 183 | 25.7 | 40.2 | 0.00 | 0.00 | 0.00 | 49 | 1011.8 |
| 20260503222338 | 16 | 198 | 25.7 | 43.5 | 0.00 | 0.00 | 0.00 | 48 | 1011.8 |
| 20260503221832 | 17 | 175 | 24.1 | 43.5 | 0.00 | 0.00 | 0.00 | 47 | 1011.9 |
| 20260503221332 | 17 | 176 | 24.1 | 38.6 | 0.00 | 0.00 | 0.00 | 50 | 1012.2 |
| 20260503220333 | 16 | 186 | 25.7 | 38.6 | 0.00 | 0.00 | 0.00 | 54 | 1012.3 |